Aérodrome :
LOGIN :

S'inscrire | Disclaimer

   EN    FR    IT 

 










Légende :    VFR   VFR Marginal   IFR   IFR Intensif   IFR Très Intensif
Visi : 
Plafond : 
>= 8 km
>= 3000ft
5 à 8 km
1000 à 3000 ft
1500m à 5 km
500 à 1000 ft
800 à 1500m
200 à 500 ft
< 800m
< 200 ft
Symboles :   Orages  Brouillard  Fortes neiges  Fortes précipitations  Vent > 20 kt
SIGMETs :   Divers  Orages  Givrage  Turbulence  Onde Orograph.  Cendres Volcan.







- Altitude de l'aérodrome : 15 ft
- Code IATA : FCO


LIRF - Roma Leonardo da Vinci Fiumicino

DERNIER METAR :
  • 182350Z 04006KT CAVOK 17/15 Q1014 NOSIG

METARs EXPIRÉS :
  • 182320Z 02004KT CAVOK 16/15 Q1013 NOSIG
  • 182250Z 01004KT CAVOK 16/15 Q1014 NOSIG
  • 182220Z VRB03KT CAVOK 18/15 Q1014 NOSIG
  • 182150Z 06005KT CAVOK 17/15 Q1014 NOSIG
  • 182120Z 08004KT 060V120 CAVOK 18/16 Q1014 NOSIG

TAF TAF LIRF
Valide du 19 à 00h jusqu'au 20 à 06h UTC


182300Z 1900/2006 VRB05KT CAVOK
BECMG 1910/1912 25010KT
BECMG 1916/1918 VRB06KT
Pas de NOTAMs connus pour ce terrain.
1 SIGMET publié pour la FIR Roma (LIRR) :
 
Orages noyés dans la masse
LIRR SIGMET 8 VALID 182330/190200 LIIB
LIRR ROMA FIR EMBD TS FCST WI N3733 E01137 - N3835 E01223 - N3906 E01353 - N3838 E01659 - N3630 E01837 - N3630 E01130 - N3733 E01137 TOP FL390 STNR NC=



MET'MAP, la Météo Aéronautique d'un coup d'oeil ! - Copyright ORBIFLY Décembre 2007 - Disclaimer

ORBIFLY MET'MAP TEAM :

Programmation & Développement : Alexandra Zaïnal
Conception & Développement : Baudouin d'Aumeries
Co-Programmation & Développement : Marc-Olivier Méhu
Soutien technique & logistique : Manuel Goepfert

Contact : metmap@orbifly.com




SOURCES & CREDITS :

   NOAA